Time;durP1;ratioP1;P1;durP2;ratioP2;P2;SDS_P1;SDS_P2;PMS_P1;PMS_P2;Temp;Humidity;BMP_temperature;BMP_pressure;BME280_temperature;BME280_humidity;BME280_pressure;Samples;Min_cycle;Max_cycle;Signal;HPM_P1;HPM_P2
2023/12/07 00:01:20;;;;;;;7.37;4.77;;;3.00;80.60;;;4.98;58.62;97898.75;5030327;28;20045;-54
2023/12/07 00:03:48;;;;;;;7.03;4.90;;;3.10;81.00;;;5.02;58.82;97894.94;5030877;28;20057;-55
2023/12/07 00:06:15;;;;;;;10.17;5.03;;;3.10;80.10;;;5.01;58.45;97902.97;5029301;28;20053;-55
2023/12/07 00:08:43;;;;;;;8.53;4.87;;;3.10;80.20;;;5.02;58.56;97897.59;5030417;28;20061;-55
2023/12/07 00:11:11;;;;;;;7.40;5.10;;;3.10;80.00;;;5.05;58.44;97899.13;5031009;28;20050;-54
2023/12/07 00:13:38;;;;;;;7.23;4.37;;;3.10;80.30;;;5.04;58.61;97902.72;5030911;28;20049;-55
2023/12/07 00:16:06;;;;;;;7.40;4.43;;;3.10;80.10;;;5.05;58.98;97907.06;5030281;28;20041;-52
2023/12/07 00:18:34;;;;;;;6.73;4.17;;;3.10;80.20;;;5.10;58.67;97903.09;5030943;28;20049;-56
2023/12/07 00:21:02;;;;;;;7.80;5.00;;;3.20;79.80;;;5.11;58.14;97898.66;5029336;28;20046;-54
2023/12/07 00:23:30;;;;;;;9.67;5.23;;;3.20;79.30;;;5.10;58.27;97907.56;5030722;28;20052;-52
2023/12/07 00:25:58;;;;;;;8.20;4.73;;;3.20;79.60;;;5.12;58.73;97913.53;5030359;28;20059;-55
2023/12/07 00:28:26;;;;;;;7.20;4.83;;;3.30;79.30;;;5.14;57.81;97914.25;5029654;28;20052;-56
2023/12/07 00:30:54;;;;;;;6.30;4.27;;;3.30;79.60;;;5.17;58.11;97910.53;5030283;28;20116;-55
2023/12/07 00:33:21;;;;;;;5.47;3.93;;;3.30;78.70;;;5.17;58.43;97914.00;5030819;28;20064;-55
2023/12/07 00:35:49;;;;;;;6.63;3.80;;;3.30;78.90;;;5.18;57.90;97918.34;5029576;28;20057;-56
2023/12/07 00:38:17;;;;;;;7.73;4.40;;;3.30;79.00;;;5.21;58.18;97918.06;5030485;28;20049;-53
2023/12/07 00:40:44;;;;;;;6.03;4.30;;;3.30;79.00;;;5.23;58.22;97924.06;5030446;28;20037;-56
2023/12/07 00:43:12;;;;;;;7.60;3.97;;;3.40;79.10;;;5.23;58.07;97925.88;5030394;28;20057;-54
2023/12/07 00:45:40;;;;;;;7.60;4.67;;;3.30;79.00;;;5.23;57.97;97923.25;5030170;28;20049;-56
2023/12/07 00:48:07;;;;;;;7.37;4.40;;;3.30;79.00;;;5.24;58.02;97930.22;5030659;28;20057;-55
2023/12/07 00:50:35;;;;;;;9.97;5.03;;;3.30;79.90;;;5.23;58.26;97918.78;5030605;28;20045;-55
2023/12/07 00:53:02;;;;;;;8.40;4.97;;;3.40;79.10;;;5.24;58.62;97925.75;5030396;28;20052;-55
2023/12/07 00:55:30;;;;;;;8.80;4.53;;;3.30;79.30;;;5.23;58.14;97924.06;5029986;28;20050;-53
2023/12/07 00:58:00;;;;;;;7.33;4.67;;;3.30;79.40;;;5.22;57.78;97922.41;5030309;28;20041;-56
2023/12/07 01:00:27;;;;;;;7.07;5.20;;;3.30;79.60;;;5.21;58.53;97928.63;5029325;28;20068;-53
2023/12/07 01:02:55;;;;;;;10.00;5.30;;;3.30;80.20;;;5.24;57.94;97917.00;5030075;28;20046;-54
2023/12/07 01:05:23;;;;;;;5.37;4.00;;;3.30;79.80;;;5.21;58.47;97920.72;5030029;28;20072;-55
2023/12/07 01:07:51;;;;;;;7.97;4.70;;;3.30;79.70;;;5.20;58.73;97924.34;5030298;28;20061;-55
2023/12/07 01:10:19;;;;;;;12.37;4.77;;;3.30;79.80;;;5.23;58.61;97929.34;5030376;28;20057;-55
2023/12/07 01:12:46;;;;;;;6.87;4.80;;;3.40;79.90;;;5.19;58.35;97921.81;5030050;28;20050;-54
2023/12/07 01:15:14;;;;;;;8.37;4.83;;;3.40;79.40;;;5.18;57.96;97933.34;5029971;28;20049;-56
2023/12/07 01:17:41;;;;;;;7.00;4.27;;;3.40;79.60;;;5.20;57.98;97934.06;5029822;28;20506;-55
2023/12/07 01:20:13;;;;;;;6.87;4.73;;;3.40;80.00;;;5.21;58.58;97938.38;5030689;28;20486;-55
2023/12/07 01:22:41;;;;;;;7.80;4.90;;;3.30;79.70;;;5.26;57.96;97941.50;5032742;28;20520;-53
2023/12/07 01:25:09;;;;;;;9.77;4.43;;;3.40;79.90;;;5.31;57.98;97944.59;5025601;28;20045;-55
2023/12/07 01:27:37;;;;;;;13.50;5.47;;;3.50;80.00;;;5.32;58.34;97941.84;5033791;28;20504;-51
2023/12/07 01:30:05;;;;;;;7.10;4.20;;;3.50;79.30;;;5.33;58.07;97943.53;5033530;28;20056;-56
2023/12/07 01:32:34;;;;;;;9.23;5.27;;;3.50;79.30;;;5.33;58.20;97950.59;5032516;28;20049;-57
2023/12/07 01:35:02;;;;;;;19.07;8.23;;;3.50;78.70;;;5.28;57.93;97939.56;5032005;28;20060;-56
2023/12/07 01:37:30;;;;;;;10.83;6.33;;;3.40;80.30;;;5.29;58.47;97950.00;5033691;28;20414;-55
2023/12/07 01:39:58;;;;;;;9.77;6.20;;;3.40;80.30;;;5.25;58.61;97945.06;5033296;28;20056;-54
2023/12/07 01:42:25;;;;;;;9.07;5.40;;;3.30;80.30;;;5.27;57.67;97943.16;5033375;28;20485;-54
2023/12/07 01:44:53;;;;;;;8.67;5.43;;;3.40;80.40;;;5.27;58.59;97954.56;5033390;28;20038;-54
2023/12/07 01:47:21;;;;;;;10.03;5.17;;;3.40;80.70;;;5.26;57.94;97957.34;5033245;28;20060;-55
2023/12/07 01:49:49;;;;;;;10.33;5.50;;;3.30;80.70;;;5.26;57.75;97955.53;5032087;28;20061;-55
2023/12/07 01:52:19;;;;;;;9.17;5.93;;;3.40;80.40;;;5.19;57.93;97954.31;5033398;28;20049;-52
2023/12/07 01:54:47;;;;;;;8.73;5.60;;;3.30;81.00;;;5.18;58.59;97955.28;5032900;28;20056;-55
2023/12/07 01:57:15;;;;;;;7.80;5.10;;;3.20;81.40;;;5.18;58.68;97957.94;5031820;28;20033;-52
2023/12/07 01:59:42;;;;;;;8.70;5.10;;;3.20;81.00;;;5.18;58.43;97957.09;5033216;28;20056;-55
2023/12/07 02:02:10;;;;;;;7.73;4.67;;;3.20;81.30;;;5.17;58.45;97961.50;5032894;28;20052;-55
2023/12/07 02:04:38;;;;;;;10.07;5.53;;;3.20;81.10;;;5.18;58.67;97962.38;5032586;28;20045;-55
2023/12/07 02:07:06;;;;;;;7.53;5.43;;;3.20;81.00;;;5.19;58.54;97956.13;5032934;28;20064;-54
2023/12/07 02:09:34;;;;;;;6.93;4.43;;;3.20;81.10;;;5.19;58.45;97961.41;5031797;28;20056;-55
2023/12/07 02:12:02;;;;;;;9.33;5.10;;;3.20;81.30;;;5.17;58.42;97958.88;5032460;28;20053;-56
2023/12/07 02:14:30;;;;;;;7.63;5.13;;;3.20;81.10;;;5.17;58.56;97955.41;5032884;28;20053;-55
2023/12/07 02:17:33;;;;;;;11.00;6.00;;;3.20;81.10;;;5.15;57.72;97957.31;5032348;28;20065;-55
2023/12/07 02:20:10;;;;;;;19.80;10.50;;;3.20;81.20;;;5.08;58.60;97963.09;5031228;28;20041;-53
2023/12/07 02:22:47;;;;;;;33.90;15.57;;;3.10;82.20;;;5.04;58.55;97953.72;5032870;28;20060;-54
2023/12/07 02:25:21;;;;;;;16.27;8.90;;;3.00;83.10;;;5.02;58.17;97946.88;5023421;28;20049;-54
2023/12/07 02:27:49;;;;;;;19.48;9.07;;;3.00;83.10;;;4.99;58.54;97953.22;5032486;28;20401;-53
2023/12/07 02:30:16;;;;;;;10.23;6.27;;;3.00;83.00;;;4.97;58.88;97944.59;5032210;28;20049;-54
2023/12/07 02:32:45;;;;;;;14.47;7.60;;;3.00;83.10;;;4.96;58.61;97953.47;5030979;28;20038;-52
2023/12/07 02:35:14;;;;;;;12.80;7.13;;;3.00;83.30;;;4.91;58.99;97953.00;5022243;28;20049;-54
2023/12/07 02:37:46;;;;;;;9.70;5.77;;;2.90;83.60;;;4.90;58.43;97951.28;5031182;28;20049;-53
2023/12/07 02:40:26;;;;;;;11.53;6.07;;;2.90;83.70;;;4.86;58.88;97957.78;5032375;28;20048;-55
2023/12/07 02:42:55;;;;;;;8.37;5.63;;;2.80;84.20;;;4.83;59.15;97958.03;5031910;28;20060;-54
2023/12/07 02:45:23;;;;;;;10.93;5.83;;;2.80;84.30;;;4.79;59.51;97956.56;5031937;28;20056;-54
2023/12/07 02:47:50;;;;;;;9.23;5.90;;;2.80;84.20;;;4.77;58.92;97956.69;5030922;28;20520;-55
2023/12/07 02:50:18;;;;;;;10.13;5.33;;;2.80;84.00;;;4.74;58.40;97954.28;5031320;28;20057;-55
2023/12/07 02:52:47;;;;;;;8.70;5.43;;;2.70;84.20;;;4.70;58.82;97951.03;5032073;28;20056;-52
2023/12/07 02:55:14;;;;;;;8.87;5.43;;;2.70;84.10;;;4.65;59.20;97954.97;5031731;28;20445;-56
2023/12/07 02:57:42;;;;;;;10.57;5.70;;;2.60;84.70;;;4.61;59.14;97953.53;5030515;28;20033;-56
2023/12/07 03:00:13;;;;;;;9.60;5.37;;;2.60;84.70;;;4.57;58.66;97952.06;5030714;28;20034;-56
2023/12/07 03:02:42;;;;;;;10.07;5.63;;;2.50;84.50;;;4.53;59.36;97956.75;5032542;28;20409;-55
2023/12/07 03:05:09;;;;;;;9.73;5.63;;;2.60;84.30;;;4.49;59.43;97952.66;5031782;28;20044;-54
2023/12/07 03:07:37;;;;;;;9.40;5.33;;;2.50;84.40;;;4.45;58.86;97959.13;5030638;28;20053;-55
2023/12/07 03:10:06;;;;;;;10.20;5.27;;;2.40;84.50;;;4.39;59.60;97956.94;5031910;28;20052;-55
2023/12/07 03:12:33;;;;;;;7.90;5.20;;;2.30;84.40;;;4.32;58.71;97964.44;5031538;28;20045;-53
2023/12/07 03:15:01;;;;;;;10.37;5.63;;;2.30;85.20;;;4.30;59.40;97958.47;5031419;28;20049;-56
2023/12/07 03:17:29;;;;;;;9.47;5.90;;;2.30;85.10;;;4.28;59.42;97950.66;5031560;28;20293;-54
2023/12/07 03:19:56;;;;;;;6.43;4.83;;;2.30;85.00;;;4.25;59.17;97952.72;5031262;28;20037;-54
2023/12/07 03:22:24;;;;;;;9.23;4.90;;;2.20;84.80;;;4.20;58.86;97962.75;5032045;28;20033;-54
2023/12/07 03:24:53;;;;;;;11.53;5.83;;;2.20;84.60;;;4.16;59.02;97963.91;5031489;28;20045;-54
2023/12/07 03:27:21;;;;;;;8.77;5.00;;;2.10;84.60;;;4.10;59.22;97954.66;5023849;28;20038;-55
2023/12/07 03:29:48;;;;;;;8.90;5.43;;;2.10;84.40;;;4.07;58.74;97960.16;5032011;28;20046;-55
2023/12/07 03:32:16;;;;;;;7.30;4.97;;;2.00;84.60;;;4.04;59.20;97963.88;5031659;28;20038;-55
2023/12/07 03:34:44;;;;;;;7.87;4.37;;;2.00;84.70;;;4.01;59.26;97960.59;5029013;28;20521;-54
2023/12/07 03:37:11;;;;;;;8.83;5.03;;;2.00;85.10;;;3.99;59.34;97963.34;5031094;28;20044;-56
2023/12/07 03:39:39;;;;;;;8.20;5.13;;;2.00;85.10;;;3.96;59.83;97965.41;5031284;28;20041;-55
2023/12/07 03:42:07;;;;;;;9.17;4.97;;;1.90;85.30;;;3.92;59.33;97962.97;5030600;28;20049;-55
2023/12/07 03:44:55;;;;;;;7.23;5.53;;;1.90;85.80;;;3.93;59.59;97969.06;5031114;28;20052;-55
2023/12/07 03:47:22;;;;;;;8.93;5.17;;;1.90;85.90;;;3.91;59.50;97977.06;5030923;28;20034;-55
2023/12/07 03:49:50;;;;;;;8.13;4.70;;;1.90;85.90;;;3.88;59.32;97974.69;5031052;28;20045;-53
2023/12/07 03:52:18;;;;;;;11.50;5.67;;;1.90;85.60;;;3.88;59.51;97976.50;5030819;28;20049;-54
2023/12/07 03:54:46;;;;;;;8.50;5.87;;;1.80;85.20;;;3.83;59.44;97971.53;5031174;28;20048;-55
2023/12/07 03:57:13;;;;;;;8.80;5.00;;;1.80;85.20;;;3.80;59.43;97973.53;5030680;28;20042;-55
2023/12/07 03:59:41;;;;;;;8.40;5.00;;;1.70;85.20;;;3.76;59.53;97975.56;5030303;28;20483;-55
2023/12/07 04:02:08;;;;;;;10.90;5.57;;;1.70;85.30;;;3.74;59.46;97969.56;5030623;28;20481;-53
2023/12/07 04:04:36;;;;;;;7.30;5.33;;;1.70;85.30;;;3.71;59.10;97978.53;5031226;28;20042;-52
2023/12/07 04:07:04;;;;;;;8.47;4.43;;;1.70;85.50;;;3.68;59.23;97976.13;5030395;28;20053;-54
2023/12/07 04:09:31;;;;;;;7.40;4.87;;;1.60;85.20;;;3.67;59.51;97978.88;5031321;28;20045;-53
2023/12/07 04:11:59;;;;;;;9.07;5.67;;;1.60;85.40;;;3.65;59.28;97984.25;5030227;28;20056;-56
2023/12/07 04:14:27;;;;;;;10.80;6.60;;;1.60;85.80;;;3.62;59.62;97980.97;5030821;28;20038;-55
2023/12/07 04:16:55;;;;;;;9.50;5.40;;;1.50;85.60;;;3.58;59.21;97974.25;5030462;28;20041;-54
2023/12/07 04:19:23;;;;;;;8.30;5.20;;;1.50;85.80;;;3.55;59.71;97981.41;5029825;28;20061;-51
2023/12/07 04:21:50;;;;;;;7.53;4.93;;;1.50;86.20;;;3.53;59.20;97985.13;5030769;28;20257;-55
2023/12/07 04:24:18;;;;;;;11.00;5.77;;;1.50;86.20;;;3.49;59.61;97984.50;5030171;28;20053;-55
2023/12/07 04:26:46;;;;;;;10.27;5.60;;;1.40;86.20;;;3.46;59.61;97978.59;5030424;28;20401;-54
2023/12/07 04:29:13;;;;;;;7.73;5.53;;;1.40;86.20;;;3.44;59.45;97985.75;5030643;28;20049;-53
2023/12/07 04:31:41;;;;;;;8.10;5.70;;;1.40;86.50;;;3.42;59.88;97979.78;5030560;28;20041;-55
2023/12/07 04:34:08;;;;;;;10.77;5.63;;;1.40;86.60;;;3.41;59.84;97989.44;5028797;28;20057;-54
2023/12/07 04:36:36;;;;;;;10.00;6.13;;;1.40;86.30;;;3.40;59.49;97985.13;5029446;28;20037;-54
2023/12/07 04:39:04;;;;;;;12.90;6.37;;;1.40;87.00;;;3.44;59.91;97991.03;5030555;28;20068;-56
2023/12/07 04:41:31;;;;;;;8.17;5.20;;;1.50;87.60;;;3.43;60.10;97992.81;5030564;28;20049;-54
2023/12/07 04:43:59;;;;;;;10.90;5.73;;;1.50;87.40;;;3.42;60.18;97988.50;5030427;28;20520;-52
2023/12/07 04:46:28;;;;;;;11.20;6.67;;;1.50;87.30;;;3.42;60.04;97987.66;5022159;28;20493;-55
2023/12/07 04:48:56;;;;;;;12.40;6.10;;;1.50;87.10;;;3.40;59.83;97994.84;5030606;28;20042;-55
2023/12/07 04:51:24;;;;;;;9.93;6.13;;;1.50;86.90;;;3.37;60.09;97990.59;5030666;28;20045;-53
2023/12/07 04:53:51;;;;;;;12.40;8.40;;;1.40;87.10;;;3.38;59.93;97996.72;5029599;28;20089;-54
2023/12/07 04:56:23;;;;;;;13.40;6.63;;;1.30;87.00;;;3.34;60.05;97986.41;5032408;28;20060;-53
2023/12/07 04:58:51;;;;;;;10.30;7.03;;;1.40;87.30;;;3.33;60.12;97992.63;5034216;28;20046;-55
2023/12/07 05:01:18;;;;;;;12.80;6.67;;;1.30;87.70;;;3.33;60.42;97995.25;5033162;28;20584;-52
2023/12/07 05:03:46;;;;;;;12.30;7.53;;;1.30;88.50;;;3.33;60.57;98003.16;5034712;28;20041;-51
2023/12/07 05:06:14;;;;;;;9.33;6.53;;;1.30;88.80;;;3.31;60.59;97991.88;5033168;28;20421;-55
2023/12/07 05:08:43;;;;;;;13.40;6.53;;;1.30;88.10;;;3.33;60.24;97990.00;5032930;28;20045;-54
2023/12/07 05:11:10;;;;;;;9.97;6.70;;;1.30;88.70;;;3.33;60.05;97990.00;5033964;28;20049;-51
2023/12/07 05:13:38;;;;;;;12.00;6.40;;;1.30;88.30;;;3.30;60.38;97997.25;5034155;28;20045;-53
2023/12/07 05:16:06;;;;;;;9.80;5.77;;;1.20;88.00;;;3.27;60.68;97997.47;5033491;28;20056;-52
2023/12/07 05:18:34;;;;;;;11.33;6.80;;;1.20;88.90;;;3.26;60.15;97998.44;5033989;28;20045;-55
2023/12/07 05:21:02;;;;;;;11.40;6.93;;;1.20;89.50;;;3.26;60.28;97999.25;5033867;28;20192;-55
2023/12/07 05:23:29;;;;;;;9.70;6.87;;;1.20;88.90;;;3.26;60.69;98001.91;5032653;28;20053;-54
2023/12/07 05:25:57;;;;;;;11.20;6.83;;;1.20;88.80;;;3.24;60.12;98001.16;5033639;28;20385;-54
2023/12/07 05:28:25;;;;;;;12.30;6.47;;;1.20;88.40;;;3.23;60.70;98001.25;5033463;28;20843;-55
2023/12/07 05:30:53;;;;;;;12.83;6.47;;;1.20;88.70;;;3.22;60.58;98003.06;5033473;28;20049;-56
2023/12/07 05:33:20;;;;;;;10.10;6.40;;;1.20;88.80;;;3.21;60.52;98006.63;5033410;28;20053;-56
2023/12/07 05:35:48;;;;;;;43.73;21.83;;;1.20;88.40;;;3.21;60.25;98004.00;5032906;28;20115;-55
2023/12/07 05:38:16;;;;;;;25.47;16.43;;;1.20;88.50;;;3.20;60.80;98001.47;5033373;28;20050;-55
2023/12/07 05:40:43;;;;;;;17.23;11.43;;;1.20;87.90;;;3.20;60.47;97993.56;5032308;28;20046;-55
2023/12/07 05:43:11;;;;;;;12.80;8.23;;;1.20;88.30;;;3.20;60.46;97997.06;5033102;28;20050;-56
2023/12/07 05:45:39;;;;;;;9.97;7.00;;;1.20;88.40;;;3.21;60.42;97992.63;5033145;28;20453;-55
2023/12/07 05:48:06;;;;;;;10.20;6.27;;;1.20;88.30;;;3.20;60.32;97997.06;5033260;28;20437;-55
2023/12/07 05:50:34;;;;;;;10.27;5.97;;;1.20;88.20;;;3.21;60.02;98000.53;5033872;28;20057;-55
2023/12/07 05:53:02;;;;;;;9.57;5.73;;;1.10;87.80;;;3.19;60.47;98002.44;5032999;28;20041;-56
2023/12/07 05:55:29;;;;;;;8.20;5.80;;;1.10;87.50;;;3.17;60.41;98002.53;5032851;28;20041;-55
2023/12/07 05:57:57;;;;;;;8.03;5.57;;;1.10;87.80;;;3.16;60.18;97995.59;5033323;28;20049;-55
2023/12/07 06:00:25;;;;;;;9.70;6.13;;;1.10;88.00;;;3.14;60.48;97998.31;5032778;28;20048;-56
2023/12/07 06:02:53;;;;;;;11.07;6.30;;;1.10;87.70;;;3.08;60.47;97998.75;5033300;28;20439;-52
2023/12/07 06:05:21;;;;;;;8.50;5.73;;;1.00;87.80;;;3.03;60.41;98000.84;5033284;28;20037;-64
2023/12/07 06:07:49;;;;;;;12.40;5.87;;;0.90;88.20;;;2.99;60.34;97999.38;5032479;28;20046;-64
2023/12/07 06:10:16;;;;;;;10.40;6.33;;;0.90;88.60;;;2.99;60.05;97998.53;5031332;28;20050;-65
2023/12/07 06:12:44;;;;;;;11.87;6.47;;;0.90;88.30;;;2.95;60.59;98004.00;5031522;28;20044;-64
2023/12/07 06:15:12;;;;;;;10.27;7.47;;;0.80;88.50;;;2.92;60.82;98004.19;5032327;28;20397;-64
2023/12/07 06:17:39;;;;;;;12.40;6.77;;;0.80;88.80;;;2.90;60.46;98000.00;5032708;28;20045;-64
2023/12/07 06:20:08;;;;;;;10.30;6.00;;;0.70;89.30;;;2.92;60.69;98000.75;5032568;28;20071;-65
2023/12/07 06:22:35;;;;;;;13.50;7.13;;;0.80;89.40;;;2.91;61.03;97999.06;5024327;28;20498;-65
2023/12/07 06:25:04;;;;;;;15.33;7.70;;;0.80;89.10;;;2.90;60.87;97997.38;5032544;28;20061;-65
2023/12/07 06:27:33;;;;;;;23.47;10.47;;;0.80;88.90;;;2.90;60.78;98000.00;5032860;28;20053;-65
2023/12/07 06:30:01;;;;;;;16.53;8.47;;;0.80;89.00;;;2.89;60.64;97996.53;5032384;28;20057;-65
2023/12/07 06:32:29;;;;;;;12.83;7.53;;;0.80;88.70;;;2.87;60.93;98002.81;5032328;28;20045;-65
2023/12/07 06:34:57;;;;;;;12.00;6.70;;;0.70;88.60;;;2.85;60.82;98002.09;5032411;28;20508;-65
2023/12/07 06:37:24;;;;;;;10.83;6.43;;;0.70;89.00;;;2.83;60.75;97996.97;5032236;28;20049;-65
2023/12/07 06:39:52;;;;;;;11.07;6.00;;;0.70;88.70;;;2.83;61.11;97996.09;5030161;28;20042;-65
2023/12/07 06:42:20;;;;;;;9.27;6.47;;;0.60;89.00;;;2.83;60.99;97998.72;5031823;28;20056;-64
2023/12/07 06:44:49;;;;;;;8.57;5.77;;;0.70;88.40;;;2.82;60.84;97997.88;5032232;28;20493;-65
2023/12/07 06:47:18;;;;;;;11.07;5.70;;;0.70;88.30;;;2.80;61.19;98001.56;5030716;28;20128;-66
2023/12/07 06:49:46;;;;;;;10.00;6.27;;;0.60;88.00;;;2.79;60.89;98011.22;5032216;28;20046;-64
2023/12/07 06:52:19;;;;;;;;;;;0.60;88.10;;;2.78;60.54;98006.09;5032996;28;20050;-65
2023/12/07 06:54:47;;;;;;;86.77;34.90;;;0.60;87.80;;;2.76;60.77;98014.91;5032661;28;19928;-66
2023/12/07 06:57:15;;;;;;;59.83;28.77;;;0.60;88.50;;;2.72;61.05;98008.19;5031545;28;20060;-63
2023/12/07 06:59:43;;;;;;;64.53;30.53;;;0.50;88.30;;;2.70;61.15;98012.72;5032112;28;20056;-63
2023/12/07 07:02:10;;;;;;;31.20;19.80;;;0.60;88.10;;;2.72;60.87;98009.97;5031952;28;20056;-64
2023/12/07 07:04:38;;;;;;;33.90;17.43;;;0.60;88.30;;;2.71;60.96;98013.53;5030482;28;20048;-64
2023/12/07 07:07:05;;;;;;;74.67;31.70;;;0.60;87.90;;;2.68;60.87;98017.22;5031470;28;20042;-64
2023/12/07 07:09:33;;;;;;;30.00;16.00;;;0.50;88.00;;;2.65;60.64;98014.78;5031969;28;20524;-64
2023/12/07 07:12:01;;;;;;;20.87;12.43;;;0.50;88.00;;;2.63;60.87;98008.78;5031302;28;20477;-65
2023/12/07 07:14:28;;;;;;;20.17;12.23;;;0.50;88.30;;;2.65;60.99;98014.78;5031583;28;20052;-62
2023/12/07 07:16:56;;;;;;;19.27;11.43;;;0.50;88.50;;;2.66;61.11;98002.50;5031259;28;20041;-64
2023/12/07 07:19:23;;;;;;;15.27;9.43;;;0.60;88.50;;;2.68;60.82;98000.63;5031644;28;20053;-64
2023/12/07 07:21:51;;;;;;;13.73;8.97;;;0.60;89.00;;;2.68;60.99;98006.72;5031588;28;20438;-64
2023/12/07 07:24:19;;;;;;;11.60;7.63;;;0.60;87.90;;;2.68;61.03;98004.09;5031479;28;20045;-65
2023/12/07 07:26:46;;;;;;;12.70;8.40;;;0.60;88.00;;;2.72;60.96;98004.72;5030363;28;20046;-64
2023/12/07 07:29:14;;;;;;;10.60;6.77;;;0.60;87.90;;;2.70;60.83;98014.50;5031326;28;20408;-64
2023/12/07 07:31:42;;;;;;;11.63;7.57;;;0.60;87.50;;;2.72;60.76;98012.63;5023325;28;20048;-64
2023/12/07 07:34:09;;;;;;;11.30;6.57;;;0.60;87.80;;;2.73;61.05;98014.28;5031400;28;20052;-63
2023/12/07 07:36:37;;;;;;;10.30;5.23;;;0.60;87.20;;;2.73;60.75;98011.66;5028669;28;20060;-62
2023/12/07 07:39:07;;;;;;;9.97;6.37;;;0.60;86.80;;;2.71;60.84;98011.75;5031379;28;20056;-65
2023/12/07 07:41:36;;;;;;;10.13;6.03;;;0.60;87.30;;;2.71;60.74;98014.38;5030966;28;20045;-64
2023/12/07 07:44:03;;;;;;;11.33;6.47;;;0.60;87.30;;;2.71;60.49;98024.06;5029988;28;20517;-64
2023/12/07 07:46:31;;;;;;;10.63;6.00;;;0.60;87.00;;;2.68;60.94;98021.66;5028988;28;20141;-64
2023/12/07 07:49:00;;;;;;;12.00;6.73;;;0.50;87.30;;;2.69;60.63;98021.53;5030868;28;20042;-63
2023/12/07 07:51:28;;;;;;;9.40;6.20;;;0.60;88.00;;;2.71;61.06;98017.00;5023341;28;20046;-63
2023/12/07 07:53:56;;;;;;;10.67;7.60;;;0.60;87.40;;;2.76;61.12;98029.88;5023629;28;20064;-64
2023/12/07 07:56:26;;;;;;;11.37;6.20;;;0.70;87.50;;;2.78;60.55;98029.78;5024057;28;20042;-62
2023/12/07 07:58:53;;;;;;;9.43;7.20;;;0.70;87.10;;;2.81;61.06;98021.66;5029793;28;20044;-61
2023/12/07 08:01:21;;;;;;;10.80;6.50;;;0.80;87.20;;;2.84;60.73;98030.19;5030640;28;20045;-62
2023/12/07 08:03:49;;;;;;;7.57;5.60;;;0.80;87.30;;;2.88;60.88;98023.75;5030957;28;20041;-63
2023/12/07 08:06:17;;;;;;;8.60;5.60;;;0.90;87.40;;;2.93;61.18;98016.41;5030627;28;20041;-63
2023/12/07 08:08:44;;;;;;;11.20;5.50;;;0.90;87.30;;;2.99;60.95;98028.31;5030581;28;20038;-63
2023/12/07 08:11:14;;;;;;;11.33;5.80;;;1.00;86.50;;;3.03;60.90;98035.03;5030663;28;20057;-63
2023/12/07 08:13:42;;;;;;;11.20;5.47;;;1.10;86.50;;;3.09;61.01;98031.16;5031003;28;20046;-63
2023/12/07 08:16:10;;;;;;;10.37;6.67;;;1.20;86.10;;;3.13;60.21;98030.81;5030494;28;20054;-62
2023/12/07 08:18:37;;;;;;;10.57;6.87;;;1.30;85.30;;;3.17;60.55;98028.84;5030745;28;20056;-63
2023/12/07 08:21:08;;;;;;;12.20;6.70;;;1.30;85.00;;;3.22;60.25;98024.09;5030421;28;20036;-63
2023/12/07 08:23:35;;;;;;;10.80;6.80;;;1.40;84.70;;;3.26;60.66;98028.22;5030475;28;20094;-61
2023/12/07 08:26:03;;;;;;;10.90;7.53;;;1.40;84.20;;;3.29;60.39;98033.25;5030332;28;20417;-63
2023/12/07 08:28:31;;;;;;;11.67;7.07;;;1.40;84.50;;;3.31;60.42;98033.97;5030520;28;20052;-63
2023/12/07 08:30:58;;;;;;;10.33;7.13;;;1.40;84.00;;;3.34;60.46;98035.56;5034397;28;20053;-61
2023/12/07 08:33:26;;;;;;;9.90;7.10;;;1.50;84.30;;;3.33;60.50;98040.00;5034581;28;20049;-62
2023/12/07 08:35:55;;;;;;;14.07;6.67;;;1.40;85.10;;;3.36;60.17;98033.69;5034336;28;20060;-62
2023/12/07 08:38:22;;;;;;;10.40;7.23;;;1.50;85.30;;;3.37;60.20;98035.34;5033170;28;20132;-62
2023/12/07 08:40:50;;;;;;;16.03;9.60;;;1.50;85.30;;;3.38;60.10;98031.78;5034199;28;20042;-62
2023/12/07 08:43:24;;;;;;;16.73;10.40;;;1.50;85.30;;;3.43;60.09;98026.19;5034286;28;20401;-61
2023/12/07 08:45:52;;;;;;;17.33;10.57;;;1.50;85.50;;;3.43;60.55;98016.50;5025012;28;20033;-62
2023/12/07 08:48:26;;;;;;;16.50;9.67;;;1.50;85.60;;;3.43;60.51;98005.13;5033967;28;20216;-64
2023/12/07 08:50:54;;;;;;;15.60;9.20;;;1.50;85.80;;;3.42;60.45;98004.28;5034047;28;20041;-63
2023/12/07 08:53:22;;;;;;;14.50;8.97;;;1.50;86.00;;;3.42;60.38;98001.66;5033979;28;20061;-63
2023/12/07 08:55:49;;;;;;;13.20;8.67;;;1.50;86.00;;;3.43;60.29;98006.00;5033374;28;20048;-63
2023/12/07 08:58:17;;;;;;;15.60;8.43;;;1.60;86.10;;;3.45;60.39;98001.47;5033155;28;20057;-63
2023/12/07 09:00:45;;;;;;;14.20;7.87;;;1.60;86.50;;;3.45;60.80;98001.47;5033916;28;20045;-63
2023/12/07 09:03:13;;;;;;;12.27;7.67;;;1.60;86.60;;;3.46;60.53;98003.13;5033955;28;20496;-63
2023/12/07 09:05:40;;;;;;;20.07;8.53;;;1.60;86.60;;;3.49;60.71;97994.16;5033777;28;20053;-63
2023/12/07 09:08:08;;;;;;;16.27;7.77;;;1.60;86.70;;;3.50;60.31;97991.41;5034278;28;20498;-63
2023/12/07 09:10:36;;;;;;;12.80;7.93;;;1.60;87.00;;;3.52;60.96;98002.69;5033792;28;20050;-63
2023/12/07 09:13:03;;;;;;;13.27;8.10;;;1.60;87.30;;;3.53;61.05;97996.47;5033901;28;20049;-63
2023/12/07 09:15:32;;;;;;;14.93;7.50;;;1.60;87.30;;;3.56;60.58;97998.03;5032510;28;20424;-64
2023/12/07 09:17:59;;;;;;;11.80;7.50;;;1.60;87.40;;;3.58;60.88;98000.56;5033355;28;20041;-63
2023/12/07 09:20:27;;;;;;;11.70;7.67;;;1.70;87.40;;;3.60;60.76;98002.16;5033860;28;20056;-63
2023/12/07 09:22:57;;;;;;;13.07;8.00;;;1.70;87.20;;;3.64;60.72;98002.78;5033544;28;20045;-63
2023/12/07 09:25:27;;;;;;;12.43;7.77;;;1.80;87.30;;;3.67;60.93;98003.41;5033489;28;20045;-63
2023/12/07 09:27:56;;;;;;;13.23;8.40;;;1.80;86.70;;;3.72;60.87;97984.63;5025707;28;20048;-63
2023/12/07 09:30:23;;;;;;;12.43;8.10;;;1.90;86.60;;;3.73;60.50;97987.16;5033525;28;20066;-63
2023/12/07 09:32:51;;;;;;;13.20;7.60;;;1.90;85.80;;;3.78;60.66;97983.34;5033542;28;20417;-63
2023/12/07 09:35:19;;;;;;;11.87;7.40;;;2.00;85.40;;;3.80;61.17;97984.94;5033316;28;20045;-63
2023/12/07 09:37:49;;;;;;;10.97;6.97;;;2.10;84.90;;;3.80;60.58;97990.22;5033644;28;20413;-63
2023/12/07 09:40:25;;;;;;;10.90;6.90;;;2.10;84.50;;;3.83;60.84;97989.13;5032281;28;20080;-63
2023/12/07 09:42:53;;;;;;;13.90;7.10;;;2.20;84.20;;;3.85;60.55;97981.97;5018717;28;20056;-63
2023/12/07 09:45:21;;;;;;;11.37;7.00;;;2.20;83.20;;;3.89;61.04;97986.06;5024107;28;20084;-63
2023/12/07 09:47:54;;;;;;;11.30;6.97;;;2.30;82.70;;;3.96;60.92;97986.47;5023282;28;20066;-63
2023/12/07 09:50:25;;;;;;;11.67;7.03;;;2.40;82.50;;;4.04;60.45;97984.94;5024196;28;20042;-63
2023/12/07 09:52:58;;;;;;;10.40;6.67;;;2.50;82.30;;;4.09;60.45;97982.81;5025035;28;20061;-62
2023/12/07 09:55:36;;;;;;;7.17;5.70;;;2.50;82.10;;;4.13;60.78;97986.91;5026525;28;20046;-62
2023/12/07 09:58:06;;;;;;;10.67;7.03;;;2.50;81.80;;;4.17;61.05;97982.25;5024326;28;20429;-62
2023/12/07 10:00:36;;;;;;;11.60;6.70;;;2.50;82.10;;;4.23;60.47;97979.16;5025483;28;20049;-62
2023/12/07 10:03:09;;;;;;;13.10;7.33;;;2.60;81.80;;;4.29;60.59;97972.59;5024574;28;20049;-62
2023/12/07 10:05:59;;;;;;;9.83;5.63;;;2.60;81.80;;;4.35;60.08;97966.88;5025316;28;20085;-62
2023/12/07 10:08:32;;;;;;;11.30;6.50;;;2.60;81.70;;;4.35;60.67;97956.34;5024645;28;20057;-63
2023/12/07 10:11:05;;;;;;;10.73;7.03;;;2.70;81.20;;;4.40;59.75;97959.47;5027899;28;20416;-63
2023/12/07 10:13:35;;;;;;;10.33;6.87;;;2.70;81.50;;;4.44;60.18;97952.16;5024669;28;20057;-62
2023/12/07 10:16:18;;;;;;;10.83;7.07;;;2.80;81.40;;;4.48;59.98;97945.72;5025312;28;20049;-62
2023/12/07 10:18:46;;;;;;;14.00;7.30;;;2.80;81.40;;;4.52;60.45;97952.44;5031166;28;20045;-62
2023/12/07 10:21:14;;;;;;;10.77;7.40;;;2.80;81.30;;;4.56;60.46;97943.34;5032701;28;20417;-62
2023/12/07 10:23:47;;;;;;;14.33;7.57;;;2.80;80.90;;;4.60;60.33;97943.94;5031578;28;20041;-62
2023/12/07 10:26:20;;;;;;;12.10;7.47;;;2.90;80.90;;;4.64;60.30;97945.38;5032478;28;20046;-62
2023/12/07 10:28:53;;;;;;;13.33;7.27;;;2.90;80.30;;;4.69;59.85;97937.94;5032531;28;20052;-62
2023/12/07 10:31:22;;;;;;;12.17;7.40;;;3.00;80.20;;;4.72;59.83;97935.91;5032165;28;20421;-62
2023/12/07 10:33:50;;;;;;;12.53;7.50;;;3.00;79.90;;;4.74;59.41;97927.91;5032247;28;20056;-62